Time;durP1;ratioP1;P1;durP2;ratioP2;P2;SDS_P1;SDS_P2;PMS_P1;PMS_P2;Temp;Humidity;BMP_temperature;BMP_pressure;BME280_temperature;BME280_humidity;BME280_pressure;Samples;Min_cycle;Max_cycle;Signal;HPM_P1;HPM_P2
2024/01/17 00:01:55;;;;;;;9.73;5.07;;;1.30;77.10;;;;;;5023791;28;20040;-88
2024/01/17 00:04:20;;;;;;;8.93;4.97;;;1.30;77.10;;;;;;5003436;28;21666;-88
2024/01/17 00:06:46;;;;;;;10.13;4.73;;;1.30;77.20;;;;;;5006308;28;20029;-88
2024/01/17 00:09:12;;;;;;;9.27;4.77;;;1.30;77.10;;;;;;5004864;28;20041;-88
2024/01/17 00:11:38;;;;;;;9.90;5.13;;;1.30;76.90;;;;;;5005005;28;20642;-87
2024/01/17 00:14:03;;;;;;;10.50;5.60;;;1.30;76.70;;;;;;5020187;28;20117;-87
2024/01/17 00:16:29;;;;;;;8.10;5.23;;;1.30;76.80;;;;;;5018771;28;20046;-88
2024/01/17 00:18:55;;;;;;;7.90;4.70;;;1.30;76.70;;;;;;5028084;28;20116;-87
2024/01/17 00:21:20;;;;;;;11.87;5.60;;;1.20;76.70;;;;;;5002413;28;20177;-87
2024/01/17 00:23:46;;;;;;;10.10;5.73;;;1.20;76.60;;;;;;5006927;28;20040;-87
2024/01/17 00:26:12;;;;;;;11.90;6.00;;;1.20;76.60;;;;;;5001619;28;20049;-87
2024/01/17 00:28:37;;;;;;;10.03;5.83;;;1.20;76.60;;;;;;5009152;28;20067;-87
2024/01/17 00:31:03;;;;;;;11.97;5.47;;;1.20;76.80;;;;;;5020748;28;20030;-87
2024/01/17 00:33:29;;;;;;;10.50;5.57;;;1.10;77.00;;;;;;5022524;28;20041;-87
2024/01/17 00:35:54;;;;;;;9.60;5.27;;;1.20;77.00;;;;;;5039876;28;20033;-87
2024/01/17 00:38:20;;;;;;;11.23;5.90;;;1.20;77.20;;;;;;5018005;28;20046;-87
2024/01/17 00:40:45;;;;;;;9.70;5.47;;;1.20;77.30;;;;;;5001778;28;20400;-87
2024/01/17 00:43:11;;;;;;;8.93;5.63;;;1.20;77.40;;;;;;5007390;28;20109;-87
2024/01/17 00:45:37;;;;;;;10.37;6.50;;;1.10;77.30;;;;;;5021327;28;20048;-87
2024/01/17 00:48:03;;;;;;;12.93;6.30;;;1.20;77.70;;;;;;5022038;28;20050;-88
2024/01/17 00:50:28;;;;;;;10.23;5.60;;;1.20;77.70;;;;;;5023020;28;20037;-87
2024/01/17 00:52:54;;;;;;;10.57;6.13;;;1.20;77.80;;;;;;5003504;28;20084;-87
2024/01/17 00:55:20;;;;;;;11.50;6.20;;;1.20;78.00;;;;;;5022737;28;20056;-87
2024/01/17 00:57:46;;;;;;;12.23;6.40;;;1.10;78.00;;;;;;5007838;28;20041;-86
2024/01/17 01:00:11;;;;;;;13.97;6.77;;;1.20;78.10;;;;;;4999104;28;20176;-85
2024/01/17 01:02:37;;;;;;;11.80;6.73;;;1.10;78.10;;;;;;5004049;28;20492;-86
2024/01/17 01:05:03;;;;;;;10.20;6.17;;;1.10;78.20;;;;;;5023958;28;20041;-86
2024/01/17 01:07:29;;;;;;;9.43;5.57;;;1.10;78.20;;;;;;5008737;28;20103;-86
2024/01/17 01:09:55;;;;;;;10.90;5.87;;;1.10;78.50;;;;;;5000650;28;20088;-87
2024/01/17 01:12:21;;;;;;;11.50;7.20;;;1.10;78.60;;;;;;5007022;28;20046;-87
2024/01/17 01:14:46;;;;;;;11.63;6.57;;;1.20;78.70;;;;;;4999724;28;20161;-86
2024/01/17 01:17:12;;;;;;;11.57;6.53;;;1.20;78.70;;;;;;5005963;28;20033;-86
2024/01/17 01:19:38;;;;;;;10.83;7.17;;;1.20;78.80;;;;;;5023015;28;20037;-87
2024/01/17 01:22:03;;;;;;;11.63;6.77;;;1.20;78.90;;;;;;5003042;28;20065;-86
2024/01/17 01:24:29;;;;;;;11.33;7.40;;;1.20;78.80;;;;;;5000572;28;20396;-87
2024/01/17 01:26:55;;;;;;;9.80;6.33;;;1.20;78.80;;;;;;5006192;28;20037;-87
2024/01/17 01:29:20;;;;;;;11.10;6.37;;;1.20;78.70;;;;;;5003437;28;20030;-86
2024/01/17 01:31:46;;;;;;;9.77;6.63;;;1.20;79.00;;;;;;5001900;28;20038;-86
2024/01/17 01:34:11;;;;;;;16.50;7.67;;;1.20;78.40;;;;;;5006589;28;20033;-87
2024/01/17 01:36:37;;;;;;;13.03;7.47;;;1.20;78.30;;;;;;5033990;28;20048;-87
2024/01/17 01:39:02;;;;;;;9.83;6.50;;;1.20;78.10;;;;;;5016831;28;20404;-86
2024/01/17 01:41:28;;;;;;;12.93;7.03;;;1.20;78.10;;;;;;5007752;28;20105;-86
2024/01/17 01:43:54;;;;;;;10.73;6.77;;;1.20;78.00;;;;;;5024164;28;20107;-86
2024/01/17 01:46:25;;;;;;;10.40;6.73;;;1.10;78.00;;;;;;5005731;28;20050;-86
2024/01/17 01:48:51;;;;;;;8.70;6.47;;;1.10;78.10;;;;;;5011740;28;20476;-87
2024/01/17 01:51:17;;;;;;;10.20;7.53;;;1.10;78.30;;;;;;5010709;28;20025;-87
2024/01/17 01:53:45;;;;;;;11.37;7.57;;;1.10;78.40;;;;;;5032873;28;20032;-86
2024/01/17 01:56:12;;;;;;;11.43;7.40;;;1.10;78.40;;;;;;5028458;28;20049;-87
2024/01/17 01:58:41;;;;;;;10.37;7.07;;;1.10;78.20;;;;;;5007289;28;20040;-86
2024/01/17 02:01:07;;;;;;;9.03;6.40;;;1.30;78.40;;;;;;5021771;28;20044;-86
2024/01/17 02:03:33;;;;;;;12.40;7.40;;;1.10;78.30;;;;;;5008851;28;20026;-86
2024/01/17 02:06:00;;;;;;;10.87;7.17;;;1.10;78.60;;;;;;5007871;28;20038;-86
2024/01/17 02:08:26;;;;;;;10.43;6.90;;;1.20;78.90;;;;;;5024053;28;20034;-86
2024/01/17 02:10:52;;;;;;;11.03;7.40;;;1.20;79.00;;;;;;5024309;28;20033;-86
2024/01/17 02:13:19;;;;;;;12.30;6.27;;;1.20;79.10;;;;;;5024053;28;20116;-86
2024/01/17 02:15:44;;;;;;;15.73;7.90;;;1.20;79.00;;;;;;5022874;28;20100;-85
2024/01/17 02:18:10;;;;;;;13.90;7.57;;;1.20;79.20;;;;;;5009062;28;20038;-86
2024/01/17 02:20:37;;;;;;;12.17;8.60;;;1.20;79.30;;;;;;5006849;28;20123;-86
2024/01/17 02:23:24;;;;;;;11.53;8.33;;;1.20;79.40;;;;;;5024733;28;20072;-86
2024/01/17 02:25:51;;;;;;;15.97;8.67;;;1.20;79.30;;;;;;5006347;28;20091;-86
2024/01/17 02:28:17;;;;;;;12.03;7.90;;;1.30;79.50;;;;;;5005953;28;20040;-86
2024/01/17 02:30:43;;;;;;;13.93;7.93;;;1.30;79.50;;;;;;5023364;28;20108;-86
2024/01/17 02:33:09;;;;;;;11.60;8.00;;;1.30;79.50;;;;;;5030694;28;20028;-86
2024/01/17 02:35:37;;;;;;;14.77;7.57;;;1.30;79.50;;;;;;5001532;28;20120;-86
2024/01/17 02:38:03;;;;;;;11.17;7.77;;;1.30;79.50;;;;;;5006843;28;20036;-86
2024/01/17 02:40:28;;;;;;;14.40;7.63;;;1.30;79.30;;;;;;5010782;28;20129;-86
2024/01/17 02:42:54;;;;;;;14.97;8.87;;;1.30;79.20;;;;;;5003892;28;20061;-86
2024/01/17 02:45:21;;;;;;;12.57;7.80;;;1.30;79.40;;;;;;5013785;28;20128;-87
2024/01/17 02:47:46;;;;;;;15.13;8.57;;;1.30;79.30;;;;;;4965928;28;1188973;-87
2024/01/17 02:50:14;;;;;;;16.63;8.60;;;1.30;79.30;;;;;;5005566;28;20100;-86
2024/01/17 02:52:47;;;;;;;16.00;9.60;;;1.30;79.40;;;;;;5004147;28;20036;-86
2024/01/17 02:55:15;;;;;;;14.47;8.67;;;1.30;79.20;;;;;;5003727;28;20037;-86
2024/01/17 02:57:41;;;;;;;14.70;9.07;;;1.30;79.20;;;;;;5021348;28;20041;-86
2024/01/17 03:00:08;;;;;;;15.80;9.10;;;1.30;79.30;;;;;;5007262;28;20034;-87
2024/01/17 03:02:35;;;;;;;14.23;8.53;;;1.30;79.30;;;;;;5000716;28;20490;-86
2024/01/17 03:05:01;;;;;;;14.50;8.47;;;1.30;79.20;;;;;;5003445;28;20033;-86
2024/01/17 03:07:26;;;;;;;13.37;8.80;;;1.30;79.20;;;;;;5004109;28;20152;-86
2024/01/17 03:09:52;;;;;;;14.33;8.57;;;1.30;79.20;;;;;;5005800;28;20500;-86
2024/01/17 03:12:20;;;;;;;13.20;8.67;;;1.30;79.00;;;;;;5007452;28;20042;-87
2024/01/17 03:14:46;;;;;;;17.27;8.90;;;1.30;79.00;;;;;;5020068;28;20061;-87
2024/01/17 03:17:14;;;;;;;13.30;8.77;;;1.30;79.00;;;;;;5006279;28;20069;-87
2024/01/17 03:19:40;;;;;;;17.47;8.80;;;1.30;79.10;;;;;;5019593;28;20481;-87
2024/01/17 03:22:05;;;;;;;16.27;9.37;;;1.30;79.20;;;;;;5015723;28;20049;-87
2024/01/17 03:24:31;;;;;;;12.50;8.00;;;1.30;79.20;;;;;;5010201;28;20037;-87
2024/01/17 03:26:56;;;;;;;12.87;8.67;;;1.30;79.30;;;;;;5007417;28;20033;-87
2024/01/17 03:29:22;;;;;;;12.13;8.27;;;1.30;79.30;;;;;;5018352;28;20129;-87
2024/01/17 03:31:47;;;;;;;14.87;9.17;;;1.30;79.30;;;;;;5008278;28;20083;-87
2024/01/17 03:34:14;;;;;;;14.33;8.87;;;1.30;79.40;;;;;;5030680;28;20037;-86
2024/01/17 03:36:39;;;;;;;15.13;9.17;;;1.30;79.20;;;;;;5024200;28;20037;-87
2024/01/17 03:39:05;;;;;;;14.73;8.67;;;1.30;79.20;;;;;;5019429;28;20044;-87
2024/01/17 03:41:31;;;;;;;15.60;9.07;;;1.30;79.10;;;;;;4997499;28;20074;-87
2024/01/17 03:43:58;;;;;;;14.70;8.53;;;1.30;79.10;;;;;;5016280;28;20069;-87
2024/01/17 03:46:24;;;;;;;14.47;8.40;;;1.30;79.10;;;;;;5017739;28;20057;-87
2024/01/17 03:48:50;;;;;;;13.33;8.37;;;1.30;79.20;;;;;;4997234;28;20034;-87
2024/01/17 03:51:16;;;;;;;14.87;8.70;;;1.30;79.10;;;;;;5004457;28;20051;-87
2024/01/17 03:53:42;;;;;;;11.97;7.97;;;1.30;79.20;;;;;;5003393;28;20046;-87
2024/01/17 03:56:07;;;;;;;18.23;8.57;;;1.30;79.00;;;;;;5022003;28;20056;-87
2024/01/17 03:58:33;;;;;;;12.80;7.90;;;1.30;78.90;;;;;;5019423;28;20041;-87
2024/01/17 04:01:02;;;;;;;12.03;8.10;;;1.30;78.80;;;;;;5021127;28;20034;-86
2024/01/17 04:03:27;;;;;;;11.23;7.43;;;1.20;78.90;;;;;;5004821;28;20041;-87
2024/01/17 04:05:53;;;;;;;15.20;9.03;;;1.20;78.90;;;;;;5001941;28;20038;-87
2024/01/17 04:08:19;;;;;;;16.10;8.20;;;1.20;78.60;;;;;;5005973;28;20041;-87
2024/01/17 04:10:44;;;;;;;12.67;7.93;;;1.20;78.80;;;;;;5002503;28;20041;-87
2024/01/17 04:13:10;;;;;;;16.07;8.87;;;1.20;78.80;;;;;;5022096;28;20408;-88
2024/01/17 04:15:35;;;;;;;12.50;7.67;;;1.20;78.80;;;;;;5000288;28;20416;-87
2024/01/17 04:18:01;;;;;;;11.60;8.37;;;1.20;78.90;;;;;;5019750;28;20505;-87
2024/01/17 04:20:26;;;;;;;13.57;8.43;;;1.20;78.90;;;;;;5004883;28;20103;-87
2024/01/17 04:22:52;;;;;;;16.30;8.47;;;1.20;79.40;;;;;;4997925;28;20042;-87
2024/01/17 04:25:18;;;;;;;14.30;9.13;;;1.20;78.90;;;;;;4997575;28;20472;-87
2024/01/17 04:27:43;;;;;;;15.60;8.27;;;1.20;78.90;;;;;;5034299;28;20045;-87
2024/01/17 04:30:11;;;;;;;13.30;8.33;;;1.20;78.90;;;;;;5005834;28;20029;-87
2024/01/17 04:32:37;;;;;;;14.53;8.97;;;1.20;78.90;;;;;;5022700;28;20072;-87
2024/01/17 04:35:04;;;;;;;12.53;9.03;;;1.20;79.10;;;;;;5004528;28;20436;-87
2024/01/17 04:37:30;;;;;;;16.53;9.57;;;1.10;79.20;;;;;;5037524;28;20091;-87
2024/01/17 04:39:57;;;;;;;14.53;8.90;;;1.20;79.30;;;;;;5005113;28;20116;-87
2024/01/17 04:42:22;;;;;;;14.27;9.27;;;1.20;79.20;;;;;;5022591;28;20038;-87
2024/01/17 04:44:49;;;;;;;15.63;9.20;;;1.10;79.20;;;;;;5020320;28;20044;-86
2024/01/17 04:47:15;;;;;;;13.77;8.97;;;1.10;79.10;;;;;;5013588;28;20042;-87
2024/01/17 04:49:42;;;;;;;16.10;9.40;;;1.10;79.20;;;;;;5017003;28;20065;-87
2024/01/17 04:52:09;;;;;;;18.47;9.87;;;1.10;79.20;;;;;;5021504;28;20034;-87
2024/01/17 04:54:35;;;;;;;13.30;9.03;;;1.10;79.10;;;;;;5022439;28;20052;-87
2024/01/17 04:57:00;;;;;;;14.97;9.17;;;1.10;79.20;;;;;;5001550;28;20034;-87
2024/01/17 04:59:26;;;;;;;15.23;9.07;;;1.10;79.20;;;;;;4999408;28;20038;-87
2024/01/17 05:01:52;;;;;;;15.87;8.73;;;1.10;79.30;;;;;;5014187;28;20118;-86
2024/01/17 05:04:18;;;;;;;14.47;9.00;;;1.10;79.20;;;;;;4999533;28;20075;-86
2024/01/17 05:06:43;;;;;;;14.73;9.97;;;1.10;79.30;;;;;;5002064;28;20088;-87
2024/01/17 05:09:11;;;;;;;19.23;10.30;;;1.10;79.40;;;;;;5015942;28;20037;-87
2024/01/17 05:11:37;;;;;;;14.57;9.27;;;1.10;79.40;;;;;;5012563;28;20042;-84
2024/01/17 05:14:03;;;;;;;15.63;9.87;;;1.10;79.40;;;;;;5019161;28;20030;-85
2024/01/17 05:16:28;;;;;;;13.23;8.33;;;1.00;79.40;;;;;;5019247;28;20044;-85
2024/01/17 05:18:54;;;;;;;18.10;8.87;;;1.10;79.40;;;;;;5021243;28;20044;-85
2024/01/17 05:21:20;;;;;;;13.73;8.10;;;1.00;79.40;;;;;;5014937;28;20045;-85
2024/01/17 05:23:45;;;;;;;12.73;9.30;;;1.00;79.60;;;;;;5018948;28;20083;-85
2024/01/17 05:26:11;;;;;;;15.93;9.33;;;1.10;79.70;;;;;;5006470;28;20037;-84
2024/01/17 05:28:36;;;;;;;17.57;9.97;;;1.10;79.70;;;;;;5004733;28;20029;-85
2024/01/17 05:31:02;;;;;;;13.30;8.13;;;1.10;79.80;;;;;;5005765;28;20034;-85
2024/01/17 05:33:28;;;;;;;16.53;8.50;;;1.10;79.80;;;;;;5002289;28;20165;-85
2024/01/17 05:35:53;;;;;;;15.27;9.00;;;1.00;79.70;;;;;;5038005;28;20506;-85
2024/01/17 05:38:19;;;;;;;14.67;8.40;;;1.00;79.40;;;;;;5006103;28;20048;-85
2024/01/17 05:40:44;;;;;;;14.83;9.00;;;1.00;79.30;;;;;;5011391;28;20041;-86
2024/01/17 05:43:10;;;;;;;14.23;9.30;;;1.00;79.30;;;;;;5012606;28;20038;-86
2024/01/17 05:45:36;;;;;;;13.70;9.17;;;1.20;79.60;;;;;;5002769;28;20042;-86
2024/01/17 05:48:02;;;;;;;14.10;8.77;;;1.00;79.40;;;;;;4999840;28;20040;-86
2024/01/17 05:50:27;;;;;;;16.37;8.67;;;1.00;79.50;;;;;;5019684;28;20408;-85
2024/01/17 05:52:53;;;;;;;15.80;9.17;;;1.00;79.40;;;;;;5020818;28;20037;-86
2024/01/17 05:55:22;;;;;;;14.53;8.90;;;1.00;79.60;;;;;;5007127;28;20054;-85
2024/01/17 05:57:48;;;;;;;17.00;9.17;;;1.00;79.60;;;;;;4992082;28;20041;-85
2024/01/17 06:00:14;;;;;;;13.57;8.90;;;1.00;79.70;;;;;;5015225;28;20048;-86
2024/01/17 06:02:41;;;;;;;13.67;8.27;;;1.00;79.50;;;;;;5002233;28;20088;-86
2024/01/17 06:05:09;;;;;;;12.63;8.43;;;1.00;79.60;;;;;;5015083;28;20105;-85
2024/01/17 06:07:35;;;;;;;14.00;8.60;;;1.00;79.50;;;;;;5016969;28;20030;-86
2024/01/17 06:10:01;;;;;;;13.53;8.73;;;1.00;79.50;;;;;;5020978;28;20090;-86
2024/01/17 06:12:27;;;;;;;13.20;8.27;;;1.00;79.50;;;;;;5020082;28;20496;-86
2024/01/17 06:14:53;;;;;;;12.07;8.50;;;1.00;79.40;;;;;;5003691;28;20171;-86
2024/01/17 06:17:18;;;;;;;14.97;8.17;;;1.00;79.50;;;;;;5003305;28;20041;-86
2024/01/17 06:19:44;;;;;;;13.23;9.10;;;0.90;79.60;;;;;;5045485;28;20085;-85
2024/01/17 06:22:10;;;;;;;12.97;8.40;;;0.90;79.60;;;;;;5020497;28;20411;-86
2024/01/17 06:24:36;;;;;;;13.57;8.30;;;0.90;79.30;;;;;;5014792;28;20029;-86
2024/01/17 06:27:02;;;;;;;13.17;7.80;;;0.90;79.40;;;;;;5021255;28;20037;-85
2024/01/17 06:29:30;;;;;;;16.33;8.27;;;0.90;79.30;;;;;;4998490;28;20055;-85
2024/01/17 06:31:56;;;;;;;15.43;8.47;;;0.80;79.00;;;;;;5021450;28;20042;-85
2024/01/17 06:34:22;;;;;;;13.40;8.37;;;0.80;79.00;;;;;;5033258;28;20093;-85
2024/01/17 06:36:47;;;;;;;16.17;8.60;;;0.80;79.00;;;;;;5006848;28;20033;-85
2024/01/17 06:39:16;;;;;;;15.93;8.93;;;0.70;78.70;;;;;;5005000;28;20034;-85
2024/01/17 06:41:41;;;;;;;12.73;8.67;;;0.70;78.50;;;;;;5007160;28;20494;-85
2024/01/17 06:44:09;;;;;;;15.97;8.13;;;0.70;78.40;;;;;;5029530;28;20073;-85
2024/01/17 06:46:35;;;;;;;13.60;8.43;;;0.60;78.20;;;;;;5008849;28;20068;-85
2024/01/17 06:49:01;;;;;;;12.70;8.43;;;0.50;78.30;;;;;;5022446;28;20029;-85
2024/01/17 06:51:26;;;;;;;13.43;8.40;;;0.50;78.30;;;;;;5024779;28;20046;-84
2024/01/17 06:53:52;;;;;;;13.20;8.10;;;0.50;78.40;;;;;;5025170;28;20420;-85
2024/01/17 06:56:18;;;;;;;11.30;7.47;;;0.40;78.40;;;;;;5031219;28;20037;-85
2024/01/17 06:58:44;;;;;;;10.47;8.20;;;0.40;78.40;;;;;;5013711;28;20041;-85
2024/01/17 07:01:09;;;;;;;14.47;8.30;;;0.40;78.40;;;;;;5007699;28;20116;-85
2024/01/17 07:03:36;;;;;;;14.93;9.00;;;0.30;78.40;;;;;;5025978;28;20477;-84
2024/01/17 07:06:02;;;;;;;13.70;8.73;;;0.30;78.30;;;;;;5027211;28;20509;-84
2024/01/17 07:08:28;;;;;;;14.83;9.37;;;0.20;78.30;;;;;;5023429;28;20112;-85
2024/01/17 07:10:53;;;;;;;14.33;7.53;;;0.20;78.30;;;;;;5006990;28;20064;-84
2024/01/17 07:13:19;;;;;;;15.63;8.43;;;0.10;78.40;;;;;;5026370;28;20175;-84
2024/01/17 07:15:44;;;;;;;12.10;7.50;;;0.10;78.60;;;;;;5020280;28;20038;-84
2024/01/17 07:18:10;;;;;;;14.07;8.50;;;0.10;78.70;;;;;;5011371;28;20496;-84
2024/01/17 07:20:36;;;;;;;13.57;8.30;;;0.00;78.80;;;;;;5019420;28;20033;-84
2024/01/17 07:23:02;;;;;;;13.43;8.03;;;0.00;78.80;;;;;;5008969;28;20036;-84
2024/01/17 07:25:28;;;;;;;14.27;8.23;;;0.00;79.00;;;;;;5012231;28;20443;-84
2024/01/17 07:27:54;;;;;;;13.83;7.73;;;-0.10;79.00;;;;;;5005065;28;20076;-84
2024/01/17 07:30:19;;;;;;;10.87;7.60;;;-0.10;79.10;;;;;;5008838;28;20120;-84
2024/01/17 07:32:45;;;;;;;14.47;7.80;;;-0.10;79.50;;;;;;5013175;28;20037;-84
2024/01/17 07:35:11;;;;;;;12.10;7.80;;;-0.20;79.10;;;;;;5008704;28;20029;-84
2024/01/17 07:37:36;;;;;;;15.33;9.07;;;-0.20;79.20;;;;;;5027522;28;20394;-84
2024/01/17 07:40:04;;;;;;;14.97;8.77;;;-0.30;79.10;;;;;;5031886;28;21412;-84
2024/01/17 07:42:30;;;;;;;11.93;7.37;;;-0.30;79.20;;;;;;5033116;28;20033;-84
2024/01/17 07:44:56;;;;;;;14.40;8.23;;;-0.40;79.20;;;;;;5033398;28;20029;-84
2024/01/17 07:47:21;;;;;;;13.83;7.63;;;-0.40;79.30;;;;;;5008236;28;20109;-84
2024/01/17 07:49:48;;;;;;;12.70;7.57;;;-0.40;79.40;;;;;;5025398;28;20042;-85
2024/01/17 07:52:14;;;;;;;13.73;8.30;;;-0.40;79.60;;;;;;5006652;28;20072;-84
2024/01/17 07:54:40;;;;;;;12.90;8.50;;;-0.40;79.70;;;;;;5022964;28;20042;-85
2024/01/17 07:57:06;;;;;;;11.93;7.90;;;-0.50;79.70;;;;;;5023716;28;20059;-84
2024/01/17 07:59:31;;;;;;;12.23;8.37;;;-0.50;79.90;;;;;;5010086;28;20091;-84
2024/01/17 08:01:58;;;;;;;12.23;7.40;;;-0.50;80.00;;;;;;5028141;28;20076;-84
2024/01/17 08:04:24;;;;;;;11.83;7.60;;;-0.50;80.00;;;;;;5007412;28;20073;-84
2024/01/17 08:06:50;;;;;;;14.60;7.70;;;-0.60;80.10;;;;;;5014783;28;20034;-84
2024/01/17 08:09:22;;;;;;;12.27;8.37;;;-0.60;80.20;;;;;;5025223;28;20409;-84
2024/01/17 08:11:55;;;;;;;16.20;8.03;;;-0.60;80.30;;;;;;5011344;28;20504;-84
2024/01/17 08:14:21;;;;;;;12.27;7.63;;;-0.60;80.40;;;;;;5027773;28;20458;-84
2024/01/17 08:16:48;;;;;;;14.10;7.50;;;-0.60;80.50;;;;;;5028655;28;20369;-84
2024/01/17 08:19:14;;;;;;;15.43;7.93;;;-0.60;80.60;;;;;;5006773;28;20049;-84
2024/01/17 08:21:41;;;;;;;14.53;7.90;;;-0.70;80.50;;;;;;5025446;28;20084;-84
2024/01/17 08:24:06;;;;;;;11.53;7.50;;;-0.70;80.60;;;;;;5010681;28;20477;-84
2024/01/17 08:26:32;;;;;;;12.73;7.77;;;-0.20;80.90;;;;;;5021871;28;20091;-84
2024/01/17 08:28:58;;;;;;;11.47;7.13;;;-0.70;80.70;;;;;;5020812;28;20074;-84
2024/01/17 08:31:23;;;;;;;13.07;8.17;;;-0.70;80.70;;;;;;5021464;28;20041;-84
2024/01/17 08:33:50;;;;;;;13.57;7.93;;;-0.70;80.70;;;;;;5007990;28;20038;-84
2024/01/17 08:36:16;;;;;;;13.70;8.27;;;-0.70;80.70;;;;;;5007707;28;20037;-84
2024/01/17 08:38:43;;;;;;;19.17;8.43;;;-0.70;80.70;;;;;;5010853;28;20069;-84
2024/01/17 08:41:09;;;;;;;14.10;7.70;;;-0.70;80.80;;;;;;5009935;28;20369;-84
2024/01/17 08:43:35;;;;;;;11.63;7.50;;;-0.80;80.70;;;;;;5034581;28;20065;-84
2024/01/17 08:46:02;;;;;;;11.10;6.70;;;-0.80;80.80;;;;;;5013108;28;20492;-83
2024/01/17 08:48:29;;;;;;;12.37;7.73;;;-0.80;81.00;;;;;;5025282;28;20037;-83
2024/01/17 08:50:55;;;;;;;14.13;7.07;;;-0.80;81.10;;;;;;5028117;28;20055;-83
2024/01/17 08:53:21;;;;;;;15.53;8.00;;;-0.80;81.20;;;;;;5025421;28;20056;-83
2024/01/17 08:55:47;;;;;;;11.70;7.20;;;-0.80;81.30;;;;;;5013194;28;20037;-84
2024/01/17 08:58:13;;;;;;;14.13;7.93;;;-0.80;81.50;;;;;;5015902;28;20100;-83
2024/01/17 09:00:39;;;;;;;11.87;7.60;;;-0.80;81.60;;;;;;5009848;28;20492;-83
2024/01/17 09:03:04;;;;;;;11.50;7.10;;;-0.80;81.80;;;;;;5029673;28;20088;-83
2024/01/17 09:05:31;;;;;;;13.50;7.80;;;-0.80;81.90;;;;;;5017686;28;20041;-83
2024/01/17 09:07:57;;;;;;;15.73;8.87;;;-0.80;82.10;;;;;;5008194;28;20041;-83
2024/01/17 09:10:23;;;;;;;13.10;8.27;;;-0.80;82.10;;;;;;5018830;28;20042;-83
2024/01/17 09:12:50;;;;;;;13.17;7.57;;;-0.80;82.20;;;;;;5018502;28;20033;-83
2024/01/17 09:15:16;;;;;;;16.00;8.27;;;-0.80;82.20;;;;;;5010986;28;20033;-83
2024/01/17 09:17:42;;;;;;;13.67;8.33;;;-0.80;82.30;;;;;;5024676;28;20034;-84
2024/01/17 09:20:08;;;;;;;13.83;8.53;;;-0.80;82.40;;;;;;5025940;28;20041;-83
2024/01/17 09:22:34;;;;;;;13.40;7.97;;;-0.70;82.60;;;;;;5008941;28;20045;-84
2024/01/17 09:25:02;;;;;;;14.27;8.70;;;-0.70;82.60;;;;;;5015141;28;20037;-84
2024/01/17 09:27:28;;;;;;;12.33;7.97;;;-0.70;82.70;;;;;;5013118;28;20030;-83
2024/01/17 09:29:54;;;;;;;13.63;8.47;;;-0.70;83.20;;;;;;5028856;28;20038;-83
2024/01/17 09:32:19;;;;;;;12.00;7.33;;;-0.70;82.90;;;;;;5009164;28;20049;-84
2024/01/17 09:34:47;;;;;;;14.13;8.80;;;-0.60;82.90;;;;;;5007655;28;20440;-84
2024/01/17 09:37:16;;;;;;;14.30;8.07;;;-0.60;82.80;;;;;;5012629;28;20037;-84
2024/01/17 09:39:43;;;;;;;11.97;7.13;;;-0.60;82.90;;;;;;5029956;28;20071;-84
2024/01/17 09:42:09;;;;;;;12.23;7.67;;;-0.60;82.70;;;;;;5010558;28;20037;-84
2024/01/17 09:44:34;;;;;;;11.50;7.80;;;0.00;83.10;;;;;;5006568;28;20514;-83
2024/01/17 09:47:01;;;;;;;11.60;8.03;;;-0.50;82.70;;;;;;5024731;28;20053;-84
2024/01/17 09:49:31;;;;;;;13.93;8.10;;;-0.50;82.70;;;;;;5006190;28;20088;-84
2024/01/17 09:51:58;;;;;;;15.90;8.43;;;-0.40;82.80;;;;;;5003032;28;20073;-84
2024/01/17 09:54:27;;;;;;;14.60;8.07;;;-0.40;82.80;;;;;;5010549;28;20044;-84
2024/01/17 09:56:55;;;;;;;14.47;8.03;;;-0.40;82.70;;;;;;5003080;28;20033;-84
2024/01/17 09:59:27;;;;;;;18.17;9.27;;;-0.40;82.70;;;;;;5025142;28;20049;-84
2024/01/17 10:01:56;;;;;;;13.23;7.80;;;-0.40;82.60;;;;;;5020146;28;20124;-84
2024/01/17 10:04:24;;;;;;;11.60;7.20;;;-0.30;82.60;;;;;;5005866;28;20045;-84
2024/01/17 10:06:50;;;;;;;13.00;7.60;;;-0.30;82.50;;;;;;5012422;28;20045;-84
2024/01/17 10:09:15;;;;;;;12.87;7.43;;;-0.30;82.50;;;;;;5009248;28;20045;-84
2024/01/17 10:11:41;;;;;;;13.53;8.20;;;-0.20;82.50;;;;;;5028084;28;20061;-84
2024/01/17 10:14:07;;;;;;;14.47;7.50;;;-0.20;82.50;;;;;;5024010;28;20029;-84
2024/01/17 10:16:34;;;;;;;9.53;7.00;;;-0.20;82.60;;;;;;5012687;28;20038;-84
2024/01/17 10:19:03;;;;;;;14.50;8.97;;;-0.10;82.70;;;;;;5027760;28;20057;-84
2024/01/17 10:21:32;;;;;;;13.30;8.37;;;-0.10;82.60;;;;;;5029467;28;20046;-84
2024/01/17 10:23:58;;;;;;;10.93;7.20;;;-0.10;82.50;;;;;;5011538;28;20040;-84
2024/01/17 10:26:24;;;;;;;12.37;8.43;;;0.00;82.40;;;;;;5044431;28;20041;-84
2024/01/17 10:28:51;;;;;;;11.27;7.33;;;0.00;82.30;;;;;;5025729;28;20033;-84
2024/01/17 10:31:20;;;;;;;12.27;8.17;;;0.00;82.10;;;;;;5007417;28;20036;-84
2024/01/17 10:33:46;;;;;;;13.70;7.83;;;0.00;82.00;;;;;;5005188;28;20030;-85
2024/01/17 10:36:12;;;;;;;14.87;8.30;;;0.00;81.80;;;;;;5002948;28;20038;-84
2024/01/17 10:38:39;;;;;;;11.43;7.00;;;0.00;81.70;;;;;;5025312;28;20034;-84
2024/01/17 10:41:06;;;;;;;10.10;6.70;;;0.00;81.60;;;;;;5027869;28;20041;-84
2024/01/17 10:43:32;;;;;;;12.10;6.50;;;0.10;81.60;;;;;;5009272;28;20180;-85
2024/01/17 10:46:01;;;;;;;12.17;7.77;;;0.10;81.40;;;;;;5007630;28;20405;-84
2024/01/17 10:48:27;;;;;;;10.97;7.60;;;0.10;81.30;;;;;;5013637;28;20041;-85
2024/01/17 10:50:59;;;;;;;11.43;7.20;;;0.10;81.20;;;;;;5012269;28;20403;-85
2024/01/17 10:53:26;;;;;;;11.90;7.40;;;0.20;81.30;;;;;;5023846;28;20037;-84
2024/01/17 10:55:54;;;;;;;13.93;7.97;;;0.20;81.30;;;;;;5006142;28;20460;-85
2024/01/17 10:58:21;;;;;;;14.17;8.27;;;0.20;81.30;;;;;;5029469;28;20041;-85
2024/01/17 11:00:50;;;;;;;14.80;8.03;;;0.20;81.30;;;;;;5024089;28;20067;-85
2024/01/17 11:03:28;;;;;;;13.50;7.77;;;0.20;81.20;;;;;;5023935;28;20413;-85
2024/01/17 11:05:55;;;;;;;13.23;7.53;;;0.30;81.10;;;;;;5011177;28;20081;-85
2024/01/17 11:08:22;;;;;;;12.63;7.30;;;0.30;81.10;;;;;;5002617;28;20042;-85
2024/01/17 11:10:48;;;;;;;17.73;8.17;;;0.30;81.00;;;;;;5013657;28;20120;-84
2024/01/17 11:13:16;;;;;;;12.43;8.13;;;0.30;80.90;;;;;;5027686;28;20034;-84
2024/01/17 11:15:42;;;;;;;13.77;7.13;;;0.40;80.90;;;;;;5004956;28;20037;-84
2024/01/17 11:18:11;;;;;;;11.73;7.40;;;0.30;80.80;;;;;;4996738;28;20045;-84
2024/01/17 11:20:39;;;;;;;12.07;8.33;;;0.40;80.80;;;;;;5023809;28;20084;-85
2024/01/17 11:23:08;;;;;;;10.93;7.07;;;0.40;80.90;;;;;;5037754;28;20037;-85
2024/01/17 11:25:45;;;;;;;15.37;7.63;;;0.80;81.00;;;;;;5001664;28;20042;-85
2024/01/17 11:28:21;;;;;;;12.90;6.77;;;0.40;80.60;;;;;;5016989;28;20513;-85
2024/01/17 11:30:50;;;;;;;12.48;7.07;;;0.50;80.60;;;;;;5015608;28;20041;-85
2024/01/17 11:33:17;;;;;;;10.37;6.53;;;0.50;80.60;;;;;;5020097;28;20034;-85
2024/01/17 11:35:51;;;;;;;10.60;7.00;;;0.50;80.50;;;;;;5001356;28;20409;-85
2024/01/17 11:38:22;;;;;;;14.40;7.43;;;0.50;80.60;;;;;;5003498;28;20048;-85
2024/01/17 11:40:51;;;;;;;10.23;7.17;;;0.60;81.20;;;;;;4996479;28;20052;-85
2024/01/17 11:43:17;;;;;;;14.80;8.17;;;0.60;80.90;;;;;;5004423;28;20672;-86
2024/01/17 11:45:44;;;;;;;11.37;6.90;;;0.60;80.90;;;;;;5005755;28;20042;-85
2024/01/17 11:48:25;;;;;;;14.00;7.57;;;0.60;81.20;;;;;;5021635;28;20072;-86
2024/01/17 11:51:06;;;;;;;10.90;7.27;;;0.70;80.70;;;;;;5005001;28;20045;-86
2024/01/17 11:53:34;;;;;;;10.30;7.33;;;0.70;80.60;;;;;;5001434;28;20554;-85
2024/01/17 11:56:04;;;;;;;11.80;7.50;;;0.70;80.50;;;;;;5019994;28;20037;-85
2024/01/17 11:58:43;;;;;;;12.97;6.77;;;0.70;80.40;;;;;;5016395;28;20431;-85
2024/01/17 12:01:40;;;;;;;11.33;7.30;;;0.80;80.10;;;;;;5016947;28;20056;-85
2024/01/17 12:04:10;;;;;;;18.07;7.20;;;0.70;79.60;;;;;;5003951;28;20090;-85
2024/01/17 12:06:37;;;;;;;13.57;7.73;;;0.80;79.80;;;;;;5032955;28;20149;-85
2024/01/17 12:09:05;;;;;;;8.97;6.07;;;0.80;79.80;;;;;;5004555;28;20041;-85
2024/01/17 12:11:31;;;;;;;10.57;6.73;;;0.80;79.70;;;;;;5018631;28;20436;-85
2024/01/17 12:13:57;;;;;;;9.80;6.57;;;0.80;79.60;;;;;;5010679;28;20184;-85
2024/01/17 12:16:23;;;;;;;10.67;7.17;;;0.80;79.50;;;;;;5004067;28;20049;-86
2024/01/17 12:18:59;;;;;;;11.27;7.17;;;0.80;79.50;;;;;;5003311;28;20112;-85
2024/01/17 12:21:25;;;;;;;9.73;6.17;;;0.90;79.30;;;;;;5015420;28;20045;-84
2024/01/17 12:23:51;;;;;;;10.53;7.03;;;0.90;79.30;;;;;;5001649;28;20409;-85
2024/01/17 12:26:16;;;;;;;9.50;6.70;;;0.90;79.30;;;;;;5003651;28;20049;-84
2024/01/17 12:28:42;;;;;;;9.33;6.07;;;0.90;79.20;;;;;;5001062;28;20507;-84
2024/01/17 12:31:08;;;;;;;10.43;7.10;;;0.90;79.20;;;;;;5020419;28;20030;-84
2024/01/17 12:33:35;;;;;;;11.97;7.53;;;0.90;79.20;;;;;;5003616;28;20033;-85
2024/01/17 12:36:03;;;;;;;12.07;8.33;;;0.90;79.10;;;;;;5035833;28;20057;-86
2024/01/17 12:38:39;;;;;;;13.00;8.47;;;0.90;79.00;;;;;;5021343;28;20069;-85
2024/01/17 12:41:05;;;;;;;9.93;7.10;;;0.90;78.90;;;;;;5000869;28;20037;-86
2024/01/17 12:43:35;;;;;;;14.70;9.27;;;0.90;79.00;;;;;;5005150;28;20492;-86